Minnetonka Beach, Minnesota
Current Conditions -  °F | °C
As of 1:53 AM on Thursday 27 Nov 2014 (Local Time) from KFCM Reporting Station
Clear Clear  
Wind Chill: -10°   Ceiling: Unl
Heat Index:   Visibility: 10mi
Dew Point: -4°   Wind: 13mph
Humidity: 63%   Direction: 340°NNW
Pressure: 30.43"   Gusts: NA
Location:  44.94°N, 93.58°W
Report Text: KFCM 270753Z 34011KT 10SM CLR M14/M20 A3043 RMK AO2 SLP324 T11441200
Loading
Personal Weather Stations






























Interactive Weather Map New forecast layout! Learn more

10-Day Weather Forecast

Advertisements
Track Severe Weather on mobile